createdAt,value
2022-10-25T00:01:02.326Z,1007.63
2022-10-25T00:02:06.758Z,1007.62
2022-10-25T00:03:10.898Z,1007.66
2022-10-25T00:04:15.339Z,1007.67
2022-10-25T00:06:47.031Z,1007.69
2022-10-25T00:07:51.460Z,1007.70
2022-10-25T00:08:55.745Z,1007.69
2022-10-25T00:10:00.068Z,1007.68
2022-10-25T00:11:04.320Z,1007.69
2022-10-25T00:12:08.682Z,1007.71
2022-10-25T00:13:12.855Z,1007.72
2022-10-25T00:14:17.269Z,1007.70
2022-10-25T00:15:21.553Z,1007.73
2022-10-25T00:16:25.879Z,1007.74
2022-10-25T00:17:30.253Z,1007.72
2022-10-25T00:18:34.493Z,1007.73
2022-10-25T00:19:38.858Z,1007.74
2022-10-25T00:20:43.190Z,1007.74
2022-10-25T00:21:47.440Z,1007.75
2022-10-25T00:22:51.811Z,1007.75
2022-10-25T00:23:56.070Z,1007.76
2022-10-25T00:25:00.437Z,1007.76
2022-10-25T00:26:04.737Z,1007.78
2022-10-25T00:27:09.038Z,1007.77
2022-10-25T00:28:13.413Z,1007.79
2022-10-25T00:29:17.724Z,1007.79
2022-10-25T00:30:21.982Z,1007.80
2022-10-25T00:31:26.303Z,1007.80
2022-10-25T00:32:30.640Z,1007.78
2022-10-25T00:33:35.012Z,1007.79
2022-10-25T00:34:39.378Z,1007.78
2022-10-25T00:35:43.703Z,1007.78
2022-10-25T00:36:47.994Z,1007.77
2022-10-25T00:37:52.335Z,1007.77
2022-10-25T00:38:56.541Z,1007.78
2022-10-25T00:40:00.839Z,1007.80
2022-10-25T00:41:05.185Z,1007.77
2022-10-25T00:42:09.443Z,1007.78
2022-10-25T00:43:13.798Z,1007.80
2022-10-25T00:44:18.236Z,1007.81
2022-10-25T00:45:22.499Z,1007.83
2022-10-25T00:46:26.742Z,1007.85
2022-10-25T00:47:31.061Z,1007.81
2022-10-25T00:48:35.460Z,1007.79
2022-10-25T00:49:39.753Z,1007.82
2022-10-25T00:50:44.092Z,1007.80
2022-10-25T00:51:48.369Z,1007.79
2022-10-25T00:52:52.760Z,1007.80
2022-10-25T00:53:57.033Z,1007.81
2022-10-25T00:55:01.342Z,1007.80
2022-10-25T00:56:05.712Z,1007.83
2022-10-25T00:57:09.968Z,1007.82
2022-10-25T00:58:14.290Z,1007.82
2022-10-25T00:59:18.624Z,1007.82
2022-10-25T01:00:22.860Z,1007.82
2022-10-25T01:01:27.317Z,1007.82
2022-10-25T01:02:31.603Z,1007.82
2022-10-25T01:03:35.822Z,1007.87
2022-10-25T01:04:46.118Z,1007.86
2022-10-25T01:05:49.100Z,1007.88
2022-10-25T01:06:53.413Z,1007.87
2022-10-25T01:07:57.752Z,1007.91
2022-10-25T01:09:02.085Z,1007.89
2022-10-25T01:10:06.406Z,1007.90
2022-10-25T01:11:10.739Z,1007.92
2022-10-25T01:12:15.021Z,1007.90
2022-10-25T01:13:19.289Z,1007.90
2022-10-25T01:14:23.698Z,1007.90
2022-10-25T01:15:27.935Z,1007.89
2022-10-25T01:16:32.303Z,1007.87
2022-10-25T01:17:36.622Z,1007.88
2022-10-25T01:18:41.075Z,1007.88
2022-10-25T01:19:45.266Z,1007.86
2022-10-25T01:20:49.602Z,1007.88
2022-10-25T01:21:53.927Z,1007.84
2022-10-25T01:22:58.269Z,1007.84
2022-10-25T01:24:02.597Z,1007.83
2022-10-25T01:25:06.904Z,1007.85
2022-10-25T01:26:11.170Z,1007.84
2022-10-25T01:27:15.517Z,1007.85
2022-10-25T01:28:19.894Z,1007.83
2022-10-25T01:29:24.229Z,1007.85
2022-10-25T01:30:28.568Z,1007.88
2022-10-25T01:31:32.933Z,1007.88
2022-10-25T01:32:37.274Z,1007.87
2022-10-25T01:33:41.497Z,1007.85
2022-10-25T01:34:45.874Z,1007.85
2022-10-25T01:35:50.014Z,1007.87
2022-10-25T01:36:54.420Z,1007.86
2022-10-25T01:37:58.748Z,1007.87
2022-10-25T01:39:03.084Z,1007.84
2022-10-25T01:40:07.543Z,1007.85
2022-10-25T01:41:11.735Z,1007.84
2022-10-25T01:42:16.110Z,1007.86
2022-10-25T01:43:20.417Z,1007.87
2022-10-25T01:44:24.867Z,1007.90
2022-10-25T01:45:29.063Z,1007.89
2022-10-25T01:46:33.398Z,1007.87
2022-10-25T01:47:37.736Z,1007.88
2022-10-25T01:48:42.049Z,1007.88
2022-10-25T01:49:46.363Z,1007.88
2022-10-25T01:50:50.706Z,1007.86
2022-10-25T01:51:55.006Z,1007.85
2022-10-25T01:52:59.259Z,1007.86
2022-10-25T01:54:03.645Z,1007.83
2022-10-25T01:55:07.881Z,1007.86
2022-10-25T01:56:12.154Z,1007.86
2022-10-25T01:57:16.545Z,1007.86
2022-10-25T01:58:20.963Z,1007.86
2022-10-25T01:59:25.195Z,1007.84
2022-10-25T02:00:29.702Z,1007.84
2022-10-25T02:01:34.100Z,1007.86
2022-10-25T02:02:38.231Z,1007.84
2022-10-25T02:03:42.572Z,1007.90
2022-10-25T02:04:46.752Z,1007.89
2022-10-25T02:05:51.143Z,1007.89
2022-10-25T02:06:55.408Z,1007.90
2022-10-25T02:07:59.654Z,1007.91
2022-10-25T02:09:04.058Z,1007.89
2022-10-25T02:10:08.220Z,1007.89
2022-10-25T02:11:12.632Z,1007.87
2022-10-25T02:12:16.963Z,1007.88
2022-10-25T02:13:21.295Z,1007.87
2022-10-25T02:14:25.740Z,1007.89
2022-10-25T02:15:29.923Z,1007.89
2022-10-25T02:16:34.268Z,1007.91
2022-10-25T02:17:38.478Z,1007.90
2022-10-25T02:18:42.821Z,1007.92
2022-10-25T02:19:47.277Z,1007.96
2022-10-25T02:20:51.549Z,1007.97
2022-10-25T02:21:55.778Z,1007.97
2022-10-25T02:23:00.112Z,1007.97
2022-10-25T02:24:04.459Z,1007.97
2022-10-25T02:25:08.832Z,1007.99
2022-10-25T02:26:13.044Z,1007.98
2022-10-25T02:27:17.420Z,1008.01
2022-10-25T02:28:21.670Z,1008.01
2022-10-25T02:29:26.150Z,1008.02
2022-10-25T02:30:30.443Z,1008.02
2022-10-25T02:31:34.780Z,1008.02
2022-10-25T02:32:39.023Z,1008.01
2022-10-25T02:33:43.408Z,1008.02
2022-10-25T02:34:47.726Z,1008.02
2022-10-25T02:35:51.934Z,1008.04
2022-10-25T02:36:56.342Z,1008.04
2022-10-25T02:38:00.603Z,1008.06
2022-10-25T02:39:04.997Z,1008.06
2022-10-25T02:40:09.202Z,1008.03
2022-10-25T02:41:13.504Z,1008.03
2022-10-25T02:42:17.870Z,1008.06
2022-10-25T02:43:22.238Z,1008.04
2022-10-25T02:44:26.503Z,1008.05
2022-10-25T02:45:30.817Z,1008.03
2022-10-25T02:46:35.155Z,1008.06
2022-10-25T02:47:39.448Z,1008.05
2022-10-25T02:48:43.899Z,1008.04
2022-10-25T02:49:51.139Z,1008.08
2022-10-25T02:50:54.560Z,1008.06
2022-10-25T02:51:58.851Z,1008.06
2022-10-25T02:53:03.251Z,1008.09
2022-10-25T02:54:07.515Z,1008.08
2022-10-25T02:55:11.797Z,1008.08
2022-10-25T02:56:16.194Z,1008.08
2022-10-25T02:57:20.477Z,1008.09
2022-10-25T02:58:24.719Z,1008.10
2022-10-25T02:59:29.010Z,1008.09
2022-10-25T03:00:33.458Z,1008.09
2022-10-25T03:01:37.650Z,1008.12
2022-10-25T03:02:41.948Z,1008.11
2022-10-25T03:03:46.408Z,1008.12
2022-10-25T03:04:50.805Z,1008.11
2022-10-25T03:05:55.090Z,1008.12
2022-10-25T03:06:59.366Z,1008.14
2022-10-25T03:08:03.741Z,1008.15
2022-10-25T03:09:08.090Z,1008.17
2022-10-25T03:10:12.461Z,1008.17
2022-10-25T03:11:16.747Z,1008.17
2022-10-25T03:12:21.098Z,1008.19
2022-10-25T03:13:25.403Z,1008.18
2022-10-25T03:14:29.684Z,1008.21
2022-10-25T03:15:34.019Z,1008.21
2022-10-25T03:16:38.212Z,1008.23
2022-10-25T03:17:42.570Z,1008.22
2022-10-25T03:18:46.883Z,1008.24
2022-10-25T03:19:51.088Z,1008.23
2022-10-25T03:20:55.438Z,1008.23
2022-10-25T03:21:59.674Z,1008.21
2022-10-25T03:23:04.032Z,1008.24
2022-10-25T03:24:08.361Z,1008.26
2022-10-25T03:25:12.704Z,1008.27
2022-10-25T03:26:16.998Z,1008.29
2022-10-25T03:27:21.141Z,1008.29
2022-10-25T03:28:25.565Z,1008.31
2022-10-25T03:29:30.002Z,1008.34
2022-10-25T03:30:34.176Z,1008.33
2022-10-25T03:31:38.523Z,1008.31
2022-10-25T03:32:42.908Z,1008.33
2022-10-25T03:33:47.231Z,1008.34
2022-10-25T03:34:51.372Z,1008.38
2022-10-25T03:35:55.812Z,1008.35
2022-10-25T03:37:00.041Z,1008.42
2022-10-25T03:38:04.381Z,1008.39
2022-10-25T03:39:08.690Z,1008.40
2022-10-25T03:40:13.014Z,1008.39
2022-10-25T03:41:17.204Z,1008.37
2022-10-25T03:42:21.611Z,1008.34
2022-10-25T03:43:25.930Z,1008.40
2022-10-25T03:44:30.351Z,1008.39
2022-10-25T03:45:34.527Z,1008.38
2022-10-25T03:46:38.869Z,1008.35
2022-10-25T03:47:43.264Z,1008.36
2022-10-25T03:48:47.481Z,1008.38
2022-10-25T03:49:51.795Z,1008.44
2022-10-25T03:50:56.141Z,1008.44
2022-10-25T03:52:02.790Z,1008.41
2022-10-25T03:53:04.876Z,1008.45
2022-10-25T03:54:09.130Z,1008.45
2022-10-25T03:55:13.437Z,1008.45
2022-10-25T03:56:17.699Z,1008.48
2022-10-25T03:57:22.162Z,1008.50
2022-10-25T03:58:26.450Z,1008.50
2022-10-25T03:59:30.641Z,1008.50
2022-10-25T04:00:35.028Z,1008.50
2022-10-25T04:01:39.407Z,1008.51
2022-10-25T04:02:43.579Z,1008.49
2022-10-25T04:03:47.931Z,1008.52
2022-10-25T04:04:52.255Z,1008.54
2022-10-25T04:05:56.495Z,1008.52
2022-10-25T04:07:00.960Z,1008.51
2022-10-25T04:08:05.219Z,1008.50
2022-10-25T04:09:09.468Z,1008.49
2022-10-25T04:10:13.811Z,1008.47
2022-10-25T04:11:18.072Z,1008.45
2022-10-25T04:12:22.470Z,1008.47
2022-10-25T04:13:26.691Z,1008.45
2022-10-25T04:14:31.018Z,1008.48
2022-10-25T04:15:35.352Z,1008.50
2022-10-25T04:16:39.663Z,1008.50
2022-10-25T04:17:44.283Z,1008.48
2022-10-25T04:18:48.320Z,1008.50
2022-10-25T04:19:52.560Z,1008.49
2022-10-25T04:20:56.923Z,1008.49
2022-10-25T04:22:01.202Z,1008.47
2022-10-25T04:23:05.587Z,1008.50
2022-10-25T04:24:09.820Z,1008.46
2022-10-25T04:25:14.187Z,1008.47
2022-10-25T04:26:18.330Z,1008.48
2022-10-25T04:27:22.643Z,1008.47
2022-10-25T04:28:26.986Z,1008.48
2022-10-25T04:29:31.295Z,1008.47
2022-10-25T04:30:38.808Z,1008.50
2022-10-25T04:31:39.831Z,1008.51
2022-10-25T04:32:44.339Z,1008.54
2022-10-25T04:33:49.014Z,1008.55
2022-10-25T04:34:52.778Z,1008.56
2022-10-25T04:35:57.246Z,1008.58
2022-10-25T04:37:01.662Z,1008.58
2022-10-25T04:38:05.922Z,1008.59
2022-10-25T04:39:10.219Z,1008.58
2022-10-25T04:40:14.360Z,1008.60
2022-10-25T04:41:18.774Z,1008.58
2022-10-25T04:42:23.104Z,1008.57
2022-10-25T04:43:27.413Z,1008.58
2022-10-25T04:44:31.677Z,1008.61
2022-10-25T04:45:36.152Z,1008.61
2022-10-25T04:46:42.930Z,1008.63
2022-10-25T04:47:44.706Z,1008.61
2022-10-25T04:48:49.031Z,1008.62
2022-10-25T04:49:53.472Z,1008.62
2022-10-25T04:50:57.717Z,1008.65
2022-10-25T04:52:02.099Z,1008.64
2022-10-25T04:53:06.517Z,1008.64
2022-10-25T04:54:10.779Z,1008.65
2022-10-25T04:55:15.031Z,1008.66
2022-10-25T04:56:19.344Z,1008.67
2022-10-25T04:57:23.675Z,1008.67
2022-10-25T04:58:31.243Z,1008.65
2022-10-25T04:59:32.285Z,1008.68
2022-10-25T05:00:36.475Z,1008.68
2022-10-25T05:01:40.983Z,1008.71
2022-10-25T05:02:45.542Z,1008.73
2022-10-25T05:03:49.393Z,1008.72
2022-10-25T05:04:53.673Z,1008.70
2022-10-25T05:05:58.049Z,1008.70
2022-10-25T05:07:02.317Z,1008.75
2022-10-25T05:08:06.521Z,1008.73
2022-10-25T05:09:10.958Z,1008.73
2022-10-25T05:10:15.304Z,1008.73
2022-10-25T05:11:19.623Z,1008.75
2022-10-25T05:12:23.843Z,1008.76
2022-10-25T05:13:28.157Z,1008.76
2022-10-25T05:14:32.547Z,1008.75
2022-10-25T05:15:36.693Z,1008.74
2022-10-25T05:16:41.074Z,1008.74
2022-10-25T05:17:45.414Z,1008.76
2022-10-25T05:18:49.836Z,1008.75
2022-10-25T05:19:54.074Z,1008.82
2022-10-25T05:20:58.318Z,1008.82
2022-10-25T05:22:02.623Z,1008.83
2022-10-25T05:23:06.891Z,1008.85
2022-10-25T05:24:11.248Z,1008.86
2022-10-25T05:25:15.559Z,1008.86
2022-10-25T05:26:19.907Z,1008.90
2022-10-25T05:27:24.215Z,1008.89
2022-10-25T05:28:28.524Z,1008.87
2022-10-25T05:29:32.867Z,1008.85
2022-10-25T05:30:37.080Z,1008.89
2022-10-25T05:31:41.458Z,1008.89
2022-10-25T05:32:46.141Z,1008.92
2022-10-25T05:33:50.020Z,1008.91
2022-10-25T05:34:54.402Z,1008.94
2022-10-25T05:35:58.706Z,1008.96
2022-10-25T05:37:03.038Z,1008.97
2022-10-25T05:38:07.374Z,1008.97
2022-10-25T05:39:11.718Z,1008.99
2022-10-25T05:40:15.998Z,1008.98
2022-10-25T05:41:20.242Z,1009.00
2022-10-25T05:42:24.518Z,1009.00
2022-10-25T05:43:28.897Z,1009.02
2022-10-25T05:44:33.230Z,1009.02
2022-10-25T05:45:37.566Z,1009.03
2022-10-25T05:46:41.757Z,1009.04
2022-10-25T05:47:46.118Z,1009.04
2022-10-25T05:48:50.446Z,1009.08
2022-10-25T05:49:54.788Z,1009.09
2022-10-25T05:51:08.405Z,1009.11
2022-10-25T05:52:03.387Z,1009.12
2022-10-25T05:53:07.691Z,1009.13
2022-10-25T05:54:11.977Z,1009.15
2022-10-25T05:55:16.248Z,1009.16
2022-10-25T05:56:20.622Z,1009.17
2022-10-25T05:57:24.926Z,1009.21
2022-10-25T05:58:29.145Z,1009.22
2022-10-25T05:59:33.499Z,1009.27
2022-10-25T06:01:42.278Z,1009.30
2022-10-25T06:02:46.777Z,1009.26
2022-10-25T06:03:50.810Z,1009.26
2022-10-25T06:04:55.042Z,1009.27
2022-10-25T06:05:59.438Z,1009.28
2022-10-25T06:07:03.775Z,1009.30
2022-10-25T06:08:08.166Z,1009.30
2022-10-25T06:09:12.419Z,1009.32
2022-10-25T06:10:16.678Z,1009.29
2022-10-25T06:11:21.082Z,1009.30
2022-10-25T06:12:25.356Z,1009.31
2022-10-25T06:13:29.690Z,1009.35
2022-10-25T06:14:34.011Z,1009.34
2022-10-25T06:15:38.363Z,1009.32
2022-10-25T06:16:42.660Z,1009.31
2022-10-25T06:17:46.988Z,1009.28
2022-10-25T06:18:51.297Z,1009.30
2022-10-25T06:19:55.615Z,1009.31
2022-10-25T06:20:59.855Z,1009.31
2022-10-25T06:22:04.401Z,1009.29
2022-10-25T06:23:10.535Z,1009.32
2022-10-25T06:24:12.902Z,1009.30
2022-10-25T06:25:17.262Z,1009.28
2022-10-25T06:26:21.607Z,1009.31
2022-10-25T06:27:25.938Z,1009.36
2022-10-25T06:28:30.261Z,1009.35
2022-10-25T06:29:34.507Z,1009.33
2022-10-25T06:30:38.873Z,1009.37
2022-10-25T06:31:43.216Z,1009.40
2022-10-25T06:32:47.807Z,1009.41
2022-10-25T06:33:51.686Z,1009.39
2022-10-25T06:34:56.043Z,1009.33
2022-10-25T06:36:00.331Z,1009.36
2022-10-25T06:37:04.680Z,1009.35
2022-10-25T06:38:08.989Z,1009.37
2022-10-25T06:39:13.276Z,1009.37
2022-10-25T06:40:17.566Z,1009.39
2022-10-25T06:41:21.842Z,1009.40
2022-10-25T06:42:26.202Z,1009.40
2022-10-25T06:43:30.459Z,1009.40
2022-10-25T06:44:34.810Z,1009.44
2022-10-25T06:45:39.140Z,1009.46
2022-10-25T06:47:15.293Z,1009.48
2022-10-25T06:47:47.755Z,1009.49
2022-10-25T06:48:52.029Z,1009.50
2022-10-25T06:49:56.507Z,1009.53
2022-10-25T06:51:00.710Z,1009.54
2022-10-25T06:52:05.065Z,1009.56
2022-10-25T06:53:09.317Z,1009.58
2022-10-25T06:54:16.683Z,1009.58
2022-10-25T06:55:20.112Z,1009.58
2022-10-25T06:56:24.351Z,1009.63
2022-10-25T06:57:28.619Z,1009.64
2022-10-25T06:58:33.022Z,1009.66
2022-10-25T06:59:37.337Z,1009.66
2022-10-25T07:00:43.732Z,1009.68
2022-10-25T07:01:46.088Z,1009.72
2022-10-25T07:02:50.322Z,1009.72
2022-10-25T07:03:54.635Z,1009.74
2022-10-25T07:04:58.972Z,1009.77
2022-10-25T07:06:03.120Z,1009.77
2022-10-25T07:07:07.473Z,1009.79
2022-10-25T07:08:11.848Z,1009.79
2022-10-25T07:09:16.016Z,1009.82
2022-10-25T07:10:20.442Z,1009.81
2022-10-25T07:11:24.664Z,1009.80
2022-10-25T07:12:28.960Z,1009.81
2022-10-25T07:13:33.250Z,1009.82
2022-10-25T07:14:37.591Z,1009.82
2022-10-25T07:15:42.257Z,1009.81
2022-10-25T07:16:46.246Z,1009.83
2022-10-25T07:17:50.694Z,1009.83
2022-10-25T07:18:54.976Z,1009.84
2022-10-25T07:19:59.278Z,1009.82
2022-10-25T07:21:03.697Z,1009.83
2022-10-25T07:22:07.889Z,1009.84
2022-10-25T07:23:12.184Z,1009.84
2022-10-25T07:24:16.597Z,1009.87
2022-10-25T07:25:20.768Z,1009.88
2022-10-25T07:26:25.199Z,1009.86
2022-10-25T07:27:29.484Z,1009.85
2022-10-25T07:28:33.839Z,1009.85
2022-10-25T07:29:38.149Z,1009.88
2022-10-25T07:30:42.394Z,1009.86
2022-10-25T07:31:46.678Z,1009.84
2022-10-25T07:32:50.969Z,1009.81
2022-10-25T07:33:55.346Z,1009.83
2022-10-25T07:34:59.709Z,1009.84
2022-10-25T07:36:11.203Z,1009.85
2022-10-25T07:37:08.377Z,1009.85
2022-10-25T07:38:12.652Z,1009.84
2022-10-25T07:39:17.013Z,1009.83
2022-10-25T07:40:21.266Z,1009.82
2022-10-25T07:41:25.631Z,1009.80
2022-10-25T07:42:29.902Z,1009.80
2022-10-25T07:43:34.235Z,1009.77
2022-10-25T07:44:38.594Z,1009.81
2022-10-25T07:45:42.887Z,1009.78
2022-10-25T07:46:47.221Z,1009.84
2022-10-25T07:47:51.565Z,1009.85
2022-10-25T07:48:55.826Z,1009.83
2022-10-25T07:50:00.184Z,1009.85
2022-10-25T07:51:04.415Z,1009.89
2022-10-25T07:52:08.754Z,1009.92
2022-10-25T07:53:13.086Z,1009.92
2022-10-25T07:54:17.381Z,1009.92
2022-10-25T07:55:21.787Z,1009.92
2022-10-25T07:56:26.197Z,1009.93
2022-10-25T07:57:30.412Z,1009.91
2022-10-25T07:58:34.751Z,1009.92
2022-10-25T07:59:39.039Z,1009.92
2022-10-25T08:00:43.394Z,1009.95
2022-10-25T08:01:47.823Z,1009.95
2022-10-25T08:02:52.099Z,1009.95
2022-10-25T08:03:56.293Z,1009.96
2022-10-25T08:05:00.666Z,1009.95
2022-10-25T08:06:04.984Z,1010.00
2022-10-25T08:07:09.268Z,1009.96
2022-10-25T08:08:13.633Z,1009.95
2022-10-25T08:09:36.800Z,1009.98
2022-10-25T08:10:22.384Z,1010.01
2022-10-25T08:11:26.717Z,1010.01
2022-10-25T08:12:31.071Z,1009.97
2022-10-25T08:13:35.397Z,1009.99
2022-10-25T08:14:41.533Z,1010.02
2022-10-25T08:15:43.930Z,1010.00
2022-10-25T08:16:48.267Z,1010.01
2022-10-25T08:17:52.570Z,1010.03
2022-10-25T08:18:56.854Z,1010.01
2022-10-25T08:20:01.187Z,1010.01
2022-10-25T08:21:05.610Z,1010.00
2022-10-25T08:22:09.826Z,1010.00
2022-10-25T08:23:14.189Z,1010.00
2022-10-25T08:25:26.146Z,1010.02
2022-10-25T08:26:27.219Z,1010.00
2022-10-25T08:27:31.473Z,1010.00
2022-10-25T08:28:35.768Z,1010.00
2022-10-25T08:29:40.145Z,1009.97
2022-10-25T08:30:44.507Z,1009.99
2022-10-25T08:31:48.781Z,1010.02
2022-10-25T08:32:53.047Z,1010.02
2022-10-25T08:33:57.489Z,1010.02
2022-10-25T08:35:01.783Z,1010.03
2022-10-25T08:36:06.099Z,1010.05
2022-10-25T08:37:10.345Z,1010.09
2022-10-25T08:38:14.645Z,1010.09
2022-10-25T08:39:19.030Z,1010.12
2022-10-25T08:40:23.362Z,1010.10
2022-10-25T08:41:27.595Z,1010.14
2022-10-25T08:42:31.885Z,1010.14
2022-10-25T08:43:36.345Z,1010.18
2022-10-25T08:44:40.618Z,1010.20
2022-10-25T08:45:47.123Z,1010.20
2022-10-25T08:46:49.269Z,1010.20
2022-10-25T08:47:53.497Z,1010.21
2022-10-25T08:48:57.775Z,1010.25
2022-10-25T08:50:02.111Z,1010.24
2022-10-25T08:51:06.423Z,1010.23
2022-10-25T08:52:14.011Z,1010.22
2022-10-25T08:53:15.073Z,1010.23
2022-10-25T08:54:19.433Z,1010.23
2022-10-25T08:55:23.727Z,1010.25
2022-10-25T08:56:28.073Z,1010.26
2022-10-25T08:57:32.428Z,1010.27
2022-10-25T08:58:36.750Z,1010.26
2022-10-25T08:59:41.099Z,1010.26
2022-10-25T09:00:45.372Z,1010.25
2022-10-25T09:01:49.907Z,1010.25
2022-10-25T09:02:54.120Z,1010.24
2022-10-25T09:03:58.441Z,1010.25
2022-10-25T09:05:02.796Z,1010.25
2022-10-25T09:06:07.164Z,1010.28
2022-10-25T09:07:11.629Z,1010.29
2022-10-25T09:08:15.831Z,1010.30
2022-10-25T09:09:20.140Z,1010.30
2022-10-25T09:10:24.449Z,1010.33
2022-10-25T09:11:28.831Z,1010.35
2022-10-25T09:12:33.149Z,1010.37
2022-10-25T09:13:37.634Z,1010.38
2022-10-25T09:14:41.782Z,1010.40
2022-10-25T09:15:46.159Z,1010.41
2022-10-25T09:16:50.421Z,1010.43
2022-10-25T09:17:54.697Z,1010.42
2022-10-25T09:18:59.021Z,1010.42
2022-10-25T09:20:03.380Z,1010.44
2022-10-25T09:21:23.024Z,1010.47
2022-10-25T09:22:25.101Z,1010.47
2022-10-25T09:23:29.333Z,1010.48
2022-10-25T09:24:33.640Z,1010.50
2022-10-25T09:25:38.025Z,1010.53
2022-10-25T09:26:42.374Z,1010.52
2022-10-25T09:27:46.973Z,1010.57
2022-10-25T09:28:50.999Z,1010.58
2022-10-25T09:29:55.309Z,1010.62
2022-10-25T09:30:59.660Z,1010.62
2022-10-25T09:32:04.005Z,1010.63
2022-10-25T09:33:08.507Z,1010.66
2022-10-25T09:34:12.692Z,1010.67
2022-10-25T09:35:17.034Z,1010.66
2022-10-25T09:36:21.421Z,1010.69
2022-10-25T09:37:25.745Z,1010.70
2022-10-25T09:38:30.099Z,1010.71
2022-10-25T09:39:34.333Z,1010.68
2022-10-25T09:40:45.006Z,1010.70
2022-10-25T09:41:42.978Z,1010.70
2022-10-25T09:42:47.373Z,1010.69
2022-10-25T09:43:51.700Z,1010.69
2022-10-25T09:44:55.958Z,1010.71
2022-10-25T09:46:00.362Z,1010.70
2022-10-25T09:47:04.678Z,1010.76
2022-10-25T09:48:09.015Z,1010.74
2022-10-25T09:49:13.336Z,1010.76
2022-10-25T09:50:17.726Z,1010.76
2022-10-25T09:51:22.049Z,1010.77
2022-10-25T09:52:26.315Z,1010.80
2022-10-25T09:53:30.657Z,1010.83
2022-10-25T09:54:34.976Z,1010.82
2022-10-25T09:55:39.221Z,1010.85
2022-10-25T09:56:43.591Z,1010.86
2022-10-25T09:57:48.165Z,1010.87
2022-10-25T09:58:52.253Z,1010.86
2022-10-25T09:59:56.569Z,1010.88
2022-10-25T10:01:01.132Z,1010.87
2022-10-25T10:02:05.372Z,1010.88
2022-10-25T10:03:09.575Z,1010.89
2022-10-25T10:04:13.923Z,1010.90
2022-10-25T10:05:18.272Z,1010.90
2022-10-25T10:06:22.641Z,1010.93
2022-10-25T10:07:26.973Z,1010.93
2022-10-25T10:08:31.255Z,1010.94
2022-10-25T10:09:35.609Z,1010.92
2022-10-25T10:10:39.938Z,1010.95
2022-10-25T10:11:44.295Z,1010.95
2022-10-25T10:12:48.760Z,1010.96
2022-10-25T10:13:52.917Z,1010.98
2022-10-25T10:14:57.313Z,1010.97
2022-10-25T10:16:01.647Z,1011.01
2022-10-25T10:17:05.970Z,1010.98
2022-10-25T10:18:10.425Z,1011.00
2022-10-25T10:19:14.836Z,1011.00
2022-10-25T10:20:19.130Z,1011.00
2022-10-25T10:21:23.391Z,1011.01
2022-10-25T10:22:27.820Z,1011.01
2022-10-25T10:23:32.150Z,1011.01
2022-10-25T10:24:36.526Z,1010.99
2022-10-25T10:25:40.863Z,1011.01
2022-10-25T10:26:45.222Z,1011.02
2022-10-25T10:27:49.818Z,1011.03
2022-10-25T10:28:54.001Z,1011.05
2022-10-25T10:29:58.411Z,1011.02
2022-10-25T10:31:02.717Z,1011.04
2022-10-25T10:32:07.000Z,1011.05
2022-10-25T10:33:11.284Z,1011.07
2022-10-25T10:34:15.586Z,1011.08
2022-10-25T10:35:19.889Z,1011.09
2022-10-25T10:36:24.219Z,1011.09
2022-10-25T10:37:28.529Z,1011.09
2022-10-25T10:38:32.916Z,1011.11
2022-10-25T10:39:37.215Z,1011.13
2022-10-25T10:40:41.597Z,1011.14
2022-10-25T10:41:45.861Z,1011.15
2022-10-25T10:42:50.386Z,1011.15
2022-10-25T10:43:54.558Z,1011.15
2022-10-25T10:44:58.835Z,1011.17
2022-10-25T10:46:03.118Z,1011.17
2022-10-25T10:47:07.422Z,1011.18
2022-10-25T10:48:11.916Z,1011.16
2022-10-25T10:49:16.155Z,1011.18
2022-10-25T10:50:20.575Z,1011.16
2022-10-25T10:51:43.143Z,1011.16
2022-10-25T10:52:29.214Z,1011.18
2022-10-25T10:53:33.564Z,1011.18
2022-10-25T10:54:37.865Z,1011.17
2022-10-25T10:55:42.181Z,1011.15
2022-10-25T10:56:46.471Z,1011.17
2022-10-25T10:57:50.774Z,1011.18
2022-10-25T10:58:55.157Z,1011.20
2022-10-25T10:59:59.494Z,1011.15
2022-10-25T11:01:03.980Z,1011.18
2022-10-25T11:02:08.467Z,1011.21
2022-10-25T11:03:12.484Z,1011.24
2022-10-25T11:04:16.891Z,1011.27
2022-10-25T11:05:21.368Z,1011.29
2022-10-25T11:06:25.661Z,1011.29
2022-10-25T11:07:30.097Z,1011.28
2022-10-25T11:08:34.493Z,1011.30
2022-10-25T11:09:38.914Z,1011.29
2022-10-25T11:10:43.203Z,1011.33
2022-10-25T11:11:47.542Z,1011.30
2022-10-25T11:12:51.890Z,1011.31
2022-10-25T11:13:56.332Z,1011.31
2022-10-25T11:15:00.657Z,1011.31
2022-10-25T11:16:04.969Z,1011.30
2022-10-25T11:17:09.340Z,1011.29
2022-10-25T11:18:13.665Z,1011.30
2022-10-25T11:19:18.046Z,1011.31
2022-10-25T11:20:22.440Z,1011.34
2022-10-25T11:21:26.809Z,1011.34
2022-10-25T11:22:33.002Z,1011.35
2022-10-25T11:23:35.520Z,1011.34
2022-10-25T11:24:39.868Z,1011.34
2022-10-25T11:25:44.219Z,1011.36
2022-10-25T11:26:48.716Z,1011.38
2022-10-25T11:27:52.849Z,1011.37
2022-10-25T11:28:57.128Z,1011.40
2022-10-25T11:30:01.614Z,1011.36
2022-10-25T11:31:05.835Z,1011.38
2022-10-25T11:32:10.215Z,1011.37
2022-10-25T11:33:14.478Z,1011.38
2022-10-25T11:34:18.962Z,1011.39
2022-10-25T11:35:23.265Z,1011.40
2022-10-25T11:36:27.654Z,1011.38
2022-10-25T11:37:32.127Z,1011.39
2022-10-25T11:38:36.348Z,1011.38
2022-10-25T11:39:43.665Z,1011.40
2022-10-25T11:40:45.004Z,1011.40
2022-10-25T11:41:49.342Z,1011.42
2022-10-25T11:42:53.921Z,1011.43
2022-10-25T11:44:12.093Z,1011.44
2022-10-25T11:45:15.355Z,1011.45
2022-10-25T11:46:19.606Z,1011.46
2022-10-25T11:47:23.983Z,1011.48
2022-10-25T11:48:28.383Z,1011.49
2022-10-25T11:49:32.726Z,1011.50
2022-10-25T11:50:36.980Z,1011.50
2022-10-25T11:51:41.248Z,1011.53
2022-10-25T11:52:45.991Z,1011.55
2022-10-25T11:53:49.901Z,1011.52
2022-10-25T11:54:54.278Z,1011.50
2022-10-25T11:55:58.664Z,1011.50
2022-10-25T11:57:02.989Z,1011.53
2022-10-25T11:58:08.111Z,1011.55
2022-10-25T11:59:11.734Z,1011.55
2022-10-25T12:00:16.278Z,1011.54
2022-10-25T12:01:20.507Z,1011.53
2022-10-25T12:02:24.876Z,1011.57
2022-10-25T12:03:29.178Z,1011.56
2022-10-25T12:04:34.775Z,1011.56
2022-10-25T12:05:37.907Z,1011.57
2022-10-25T12:06:42.271Z,1011.56
2022-10-25T12:07:46.637Z,1011.58
2022-10-25T12:08:51.035Z,1011.57
2022-10-25T12:09:55.396Z,1011.57
2022-10-25T12:10:59.801Z,1011.60
2022-10-25T12:12:04.022Z,1011.61
2022-10-25T12:13:08.424Z,1011.62
2022-10-25T12:14:18.975Z,1011.62
2022-10-25T12:15:21.684Z,1011.62
2022-10-25T12:16:26.048Z,1011.63
2022-10-25T12:17:30.307Z,1011.61
2022-10-25T12:18:34.810Z,1011.63
2022-10-25T12:19:39.130Z,1011.63
2022-10-25T12:20:43.468Z,1011.65
2022-10-25T12:21:47.827Z,1011.68
2022-10-25T12:22:52.214Z,1011.68
2022-10-25T12:23:56.481Z,1011.66
2022-10-25T12:25:00.818Z,1011.68
2022-10-25T12:26:05.333Z,1011.68
2022-10-25T12:27:09.554Z,1011.71
2022-10-25T12:28:13.874Z,1011.71
2022-10-25T12:29:18.184Z,1011.70
2022-10-25T12:30:22.657Z,1011.73
2022-10-25T12:31:26.808Z,1011.71
2022-10-25T12:32:31.243Z,1011.71
2022-10-25T12:33:35.619Z,1011.69
2022-10-25T12:34:39.963Z,1011.73
2022-10-25T12:35:44.398Z,1011.72
2022-10-25T12:36:48.698Z,1011.75
2022-10-25T12:37:56.448Z,1011.77
2022-10-25T12:38:57.296Z,1011.76
2022-10-25T12:40:04.696Z,1011.76
2022-10-25T12:41:08.181Z,1011.75
2022-10-25T12:42:12.613Z,1011.78
2022-10-25T12:43:16.932Z,1011.76
2022-10-25T12:44:21.373Z,1011.74
2022-10-25T12:45:25.812Z,1011.74
2022-10-25T12:46:30.049Z,1011.75
2022-10-25T12:47:34.447Z,1011.76
2022-10-25T12:48:38.805Z,1011.78
2022-10-25T12:49:43.107Z,1011.78
2022-10-25T12:50:47.624Z,1011.81
2022-10-25T12:51:52.030Z,1011.79
2022-10-25T12:52:56.354Z,1011.80
2022-10-25T12:54:00.648Z,1011.80
2022-10-25T12:55:05.100Z,1011.77
2022-10-25T12:56:09.465Z,1011.79
2022-10-25T12:57:13.927Z,1011.79
2022-10-25T12:58:18.362Z,1011.78
2022-10-25T12:59:22.689Z,1011.75
2022-10-25T13:00:27.063Z,1011.76
2022-10-25T13:01:31.593Z,1011.76
2022-10-25T13:02:35.785Z,1011.75